createdAt,value
2018-06-15T00:00:12.705Z,23.80
2018-06-15T00:02:41.054Z,23.83
2018-06-15T00:05:09.356Z,24.60
2018-06-15T00:07:37.677Z,21.40
2018-06-15T00:10:05.980Z,23.83
2018-06-15T00:12:34.273Z,22.67
2018-06-15T00:15:02.612Z,23.37
2018-06-15T00:17:30.913Z,20.87
2018-06-15T00:19:59.245Z,23.20
2018-06-15T00:22:27.275Z,22.57
2018-06-15T00:24:55.591Z,22.53
2018-06-15T00:27:23.888Z,24.97
2018-06-15T00:29:52.214Z,29.27
2018-06-15T00:32:20.547Z,26.93
2018-06-15T00:34:48.868Z,30.57
2018-06-15T00:37:17.165Z,26.67
2018-06-15T00:39:45.472Z,26.37
2018-06-15T00:42:13.777Z,30.37
2018-06-15T00:44:42.099Z,32.40
2018-06-15T00:47:10.402Z,30.27
2018-06-15T00:49:38.746Z,27.60
2018-06-15T00:52:07.049Z,29.43
2018-06-15T00:54:35.373Z,26.70
2018-06-15T00:57:15.131Z,27.40
2018-06-15T00:59:43.458Z,28.50
2018-06-15T01:02:11.752Z,27.23
2018-06-15T01:04:40.095Z,24.00
2018-06-15T01:07:08.404Z,24.73
2018-06-15T01:09:36.728Z,29.03
2018-06-15T01:12:05.367Z,29.30
2018-06-15T01:14:33.860Z,31.23
2018-06-15T01:17:02.450Z,25.83
2018-06-15T01:19:30.799Z,23.23
2018-06-15T01:21:59.099Z,26.60
2018-06-15T01:24:27.413Z,31.37
2018-06-15T01:26:55.721Z,29.70
2018-06-15T01:29:24.041Z,28.17
2018-06-15T01:31:52.339Z,29.67
2018-06-15T01:34:20.673Z,29.17
2018-06-15T01:36:48.980Z,38.60
2018-06-15T01:39:17.293Z,46.43
2018-06-15T01:41:45.596Z,41.53
2018-06-15T01:44:13.913Z,38.90
2018-06-15T01:46:42.209Z,39.10
2018-06-15T01:49:10.554Z,36.27
2018-06-15T01:51:38.869Z,34.23
2018-06-15T01:54:07.210Z,36.97
2018-06-15T01:56:35.536Z,30.57
2018-06-15T01:59:03.962Z,29.70
2018-06-15T02:01:32.295Z,29.30
2018-06-15T02:04:00.602Z,27.60
2018-06-15T02:06:28.929Z,29.53
2018-06-15T02:08:57.269Z,32.37
2018-06-15T02:11:27.793Z,25.43
2018-06-15T02:13:56.105Z,30.53
2018-06-15T02:16:24.465Z,29.03
2018-06-15T02:18:52.795Z,27.77
2018-06-15T02:21:21.151Z,27.60
2018-06-15T02:23:49.650Z,27.03
2018-06-15T02:26:18.039Z,28.17
2018-06-15T02:28:46.447Z,28.70
2018-06-15T02:31:14.800Z,26.63
2018-06-15T02:33:43.139Z,30.10
2018-06-15T02:36:11.535Z,26.67
2018-06-15T02:38:39.883Z,28.33
2018-06-15T02:41:08.240Z,29.40
2018-06-15T02:43:36.691Z,32.20
2018-06-15T02:46:05.079Z,27.27
2018-06-15T02:48:33.418Z,27.93
2018-06-15T02:51:01.751Z,27.27
2018-06-15T02:53:30.137Z,29.77
2018-06-15T02:55:58.523Z,32.10
2018-06-15T02:58:26.846Z,34.73
2018-06-15T03:00:55.214Z,35.77
2018-06-15T03:03:23.539Z,32.90
2018-06-15T03:05:51.883Z,30.00
2018-06-15T03:08:20.205Z,32.73
2018-06-15T03:10:48.567Z,32.63
2018-06-15T03:13:16.887Z,36.73
2018-06-15T03:15:45.243Z,42.03
2018-06-15T03:18:13.767Z,32.07
2018-06-15T03:20:42.116Z,34.13
2018-06-15T03:23:10.444Z,36.93
2018-06-15T03:25:38.789Z,31.40
2018-06-15T03:28:07.112Z,33.30
2018-06-15T03:30:35.463Z,32.20
2018-06-15T03:33:03.786Z,27.60
2018-06-15T03:35:32.130Z,28.90
2018-06-15T03:38:00.452Z,30.53
2018-06-15T03:40:28.844Z,30.50
2018-06-15T03:42:57.175Z,31.33
2018-06-15T03:45:25.527Z,33.37
2018-06-15T03:47:53.848Z,29.77
2018-06-15T03:50:22.239Z,30.97
2018-06-15T03:52:50.571Z,37.83
2018-06-15T03:55:18.938Z,30.80
2018-06-15T03:57:47.286Z,30.50
2018-06-15T04:00:15.626Z,36.77
2018-06-15T04:02:43.971Z,33.63
2018-06-15T04:05:12.312Z,31.87
2018-06-15T04:07:40.788Z,32.33
2018-06-15T04:10:09.136Z,34.83
2018-06-15T04:12:37.475Z,32.37
2018-06-15T04:15:05.803Z,33.47
2018-06-15T04:17:34.155Z,31.70
2018-06-15T04:20:02.508Z,38.40
2018-06-15T04:22:30.840Z,35.17
2018-06-15T04:24:59.176Z,36.50
2018-06-15T04:27:27.519Z,35.43
2018-06-15T04:29:55.835Z,40.87
2018-06-15T04:32:24.355Z,41.63
2018-06-15T04:34:52.681Z,41.27
2018-06-15T04:37:21.040Z,37.20
2018-06-15T04:39:49.380Z,41.40
2018-06-15T04:42:17.731Z,36.03
2018-06-15T04:44:46.065Z,43.53
2018-06-15T04:47:14.418Z,38.30
2018-06-15T04:49:42.834Z,36.17
2018-06-15T04:52:11.177Z,35.60
2018-06-15T04:54:39.500Z,41.33
2018-06-15T04:57:07.842Z,37.83
2018-06-15T04:59:36.159Z,44.53
2018-06-15T05:02:04.503Z,42.33
2018-06-15T05:04:32.852Z,39.70
2018-06-15T05:07:01.195Z,41.90
2018-06-15T05:09:29.527Z,43.17
2018-06-15T05:11:57.863Z,39.03
2018-06-15T05:14:26.190Z,44.53
2018-06-15T05:16:54.527Z,40.07
2018-06-15T05:19:22.855Z,40.00
2018-06-15T05:21:51.199Z,36.93
2018-06-15T05:24:19.526Z,34.93
2018-06-15T05:26:47.867Z,33.03
2018-06-15T05:29:16.191Z,32.73
2018-06-15T05:31:44.527Z,34.23
2018-06-15T05:34:12.974Z,34.20
2018-06-15T05:36:41.331Z,33.70
2018-06-15T05:39:10.771Z,31.60
2018-06-15T05:41:39.150Z,32.40
2018-06-15T05:44:07.555Z,33.87
2018-06-15T05:46:35.896Z,31.97
2018-06-15T05:49:04.649Z,33.07
2018-06-15T05:51:33.003Z,30.90
2018-06-15T05:54:01.371Z,36.83
2018-06-15T05:56:29.718Z,29.23
2018-06-15T05:58:58.039Z,32.63
2018-06-15T06:01:26.398Z,28.33
2018-06-15T06:03:54.812Z,35.20
2018-06-15T06:06:23.147Z,33.00
2018-06-15T06:08:51.490Z,30.80
2018-06-15T06:11:19.940Z,38.33
2018-06-15T06:13:48.286Z,41.03
2018-06-15T06:16:16.612Z,36.97
2018-06-15T06:18:44.954Z,38.67
2018-06-15T06:21:13.284Z,38.37
2018-06-15T06:23:41.739Z,36.00
2018-06-15T06:26:10.422Z,34.73
2018-06-15T06:28:38.768Z,33.77
2018-06-15T06:31:07.624Z,33.00
2018-06-15T06:33:35.963Z,36.37
2018-06-15T06:36:04.335Z,35.67
2018-06-15T06:38:32.679Z,32.63
2018-06-15T06:41:01.003Z,28.97
2018-06-15T06:43:29.331Z,26.50
2018-06-15T06:45:57.657Z,27.10
2018-06-15T06:48:26.043Z,26.63
2018-06-15T06:50:54.376Z,27.70
2018-06-15T06:53:22.719Z,23.70
2018-06-15T06:55:51.043Z,28.03
2018-06-15T06:58:19.387Z,24.20
2018-06-15T07:00:47.722Z,24.93
2018-06-15T07:03:16.075Z,27.00
2018-06-15T07:05:44.411Z,25.50
2018-06-15T07:08:12.907Z,22.40
2018-06-15T07:10:41.235Z,23.73
2018-06-15T07:13:09.605Z,23.13
2018-06-15T07:15:37.919Z,24.17
2018-06-15T07:18:06.306Z,24.90
2018-06-15T07:20:34.698Z,25.00
2018-06-15T07:23:03.057Z,25.60
2018-06-15T07:25:31.386Z,21.73
2018-06-15T07:27:59.739Z,23.27
2018-06-15T07:30:28.078Z,23.60
2018-06-15T07:32:56.923Z,22.70
2018-06-15T07:35:25.255Z,23.50
2018-06-15T07:37:54.076Z,21.80
2018-06-15T07:40:22.412Z,22.07
2018-06-15T07:42:50.763Z,22.57
2018-06-15T07:45:19.095Z,25.27
2018-06-15T07:47:47.439Z,22.40
2018-06-15T07:50:15.801Z,25.87
2018-06-15T07:52:44.139Z,24.83
2018-06-15T07:55:12.462Z,24.87
2018-06-15T07:57:40.795Z,22.23
2018-06-15T08:00:09.151Z,24.17
2018-06-15T08:02:37.496Z,22.40
2018-06-15T08:05:05.862Z,23.73
2018-06-15T08:07:34.179Z,23.00
2018-06-15T08:10:02.516Z,22.43
2018-06-15T08:12:30.835Z,21.90
2018-06-15T08:14:59.174Z,23.33
2018-06-15T08:17:27.533Z,21.23
2018-06-15T08:19:55.875Z,22.30
2018-06-15T08:22:24.196Z,21.30
2018-06-15T08:24:52.540Z,19.20
2018-06-15T08:27:20.867Z,18.07
2018-06-15T08:29:49.203Z,18.90
2018-06-15T08:32:17.527Z,18.30
2018-06-15T08:34:45.899Z,17.40
2018-06-15T08:37:14.244Z,17.27
2018-06-15T08:39:42.596Z,17.30
2018-06-15T08:42:10.911Z,18.87
2018-06-15T08:44:39.304Z,16.07
2018-06-15T08:47:07.623Z,17.07
2018-06-15T08:49:35.978Z,17.60
2018-06-15T08:52:04.350Z,17.07
2018-06-15T08:54:32.683Z,17.97
2018-06-15T08:57:01.006Z,17.30
2018-06-15T08:59:29.414Z,16.30
2018-06-15T09:01:57.733Z,16.00
2018-06-15T09:04:26.119Z,15.63
2018-06-15T09:06:54.522Z,16.27
2018-06-15T09:09:22.854Z,16.47
2018-06-15T09:11:51.202Z,18.57
2018-06-15T09:14:19.530Z,17.00
2018-06-15T09:16:47.863Z,17.37
2018-06-15T09:19:16.194Z,17.00
2018-06-15T09:21:44.519Z,16.47
2018-06-15T09:24:12.855Z,16.73
2018-06-15T09:26:41.179Z,16.03
2018-06-15T09:29:09.512Z,18.00
2018-06-15T09:31:37.855Z,15.53
2018-06-15T09:34:06.239Z,15.57
2018-06-15T09:36:34.559Z,17.40
2018-06-15T09:39:02.952Z,17.50
2018-06-15T09:41:31.258Z,16.13
2018-06-15T09:43:59.587Z,15.23
2018-06-15T09:46:27.956Z,14.30
2018-06-15T09:48:56.908Z,14.63
2018-06-15T09:51:25.224Z,13.77
2018-06-15T09:53:53.603Z,14.50
2018-06-15T09:56:21.927Z,15.20
2018-06-15T09:58:53.787Z,15.50
2018-06-15T10:01:22.275Z,15.10
2018-06-15T10:03:50.627Z,15.90
2018-06-15T10:06:19.023Z,14.63
2018-06-15T10:08:47.350Z,13.00
2018-06-15T10:11:15.686Z,14.23
2018-06-15T10:13:44.023Z,14.70
2018-06-15T10:16:12.423Z,13.53
2018-06-15T10:18:40.751Z,14.03
2018-06-15T10:21:09.082Z,15.17
2018-06-15T10:23:37.414Z,13.97
2018-06-15T10:26:05.779Z,13.40
2018-06-15T10:28:34.115Z,14.27
2018-06-15T10:31:02.526Z,13.93
2018-06-15T10:33:30.855Z,14.47
2018-06-15T10:35:59.207Z,15.80
2018-06-15T10:38:27.527Z,14.73
2018-06-15T10:40:55.872Z,14.30
2018-06-15T10:43:24.198Z,12.77
2018-06-15T10:45:52.552Z,14.67
2018-06-15T10:48:21.007Z,12.83
2018-06-15T10:50:49.383Z,15.30
2018-06-15T10:53:17.708Z,13.20
2018-06-15T10:55:46.068Z,14.67
2018-06-15T10:58:14.418Z,12.03
2018-06-15T11:00:42.807Z,13.20
2018-06-15T11:03:11.127Z,10.27
2018-06-15T11:05:39.519Z,11.37
2018-06-15T11:08:07.839Z,10.67
2018-06-15T11:10:36.171Z,10.53
2018-06-15T11:13:04.579Z,10.30
2018-06-15T11:15:32.940Z,9.50
2018-06-15T11:18:01.247Z,8.90
2018-06-15T11:20:29.599Z,8.60
2018-06-15T11:22:57.950Z,8.33
2018-06-15T11:25:26.331Z,8.13
2018-06-15T11:27:54.683Z,8.33
2018-06-15T11:30:23.015Z,9.93
2018-06-15T11:32:51.331Z,6.60
2018-06-15T11:35:19.663Z,7.00
2018-06-15T11:37:47.974Z,7.30
2018-06-15T11:40:16.299Z,7.73
2018-06-15T11:42:44.614Z,7.53
2018-06-15T11:45:13.036Z,7.40
2018-06-15T11:47:41.347Z,8.57
2018-06-15T11:50:09.707Z,6.50
2018-06-15T11:52:38.043Z,6.40
2018-06-15T11:55:06.559Z,6.80
2018-06-15T11:57:34.888Z,5.77
2018-06-15T12:00:03.236Z,6.30
2018-06-15T12:02:31.595Z,6.40
2018-06-15T12:04:59.903Z,4.97
2018-06-15T12:07:28.268Z,4.67
2018-06-15T12:09:56.583Z,4.93
2018-06-15T12:12:24.921Z,4.83
2018-06-15T12:14:53.226Z,4.37
2018-06-15T12:17:21.631Z,6.23
2018-06-15T12:19:49.967Z,5.03
2018-06-15T12:22:18.303Z,5.90
2018-06-15T12:24:46.614Z,5.53
2018-06-15T12:27:15.007Z,5.77
2018-06-15T12:29:43.329Z,5.47
2018-06-15T12:32:11.659Z,4.53
2018-06-15T12:34:40.090Z,4.80
2018-06-15T12:37:08.455Z,5.60
2018-06-15T12:39:36.766Z,5.10
2018-06-15T12:42:05.099Z,5.17
2018-06-15T12:44:33.423Z,4.80
2018-06-15T12:47:01.751Z,4.93
2018-06-15T12:49:30.159Z,4.40
2018-06-15T12:51:58.513Z,5.10
2018-06-15T12:54:26.835Z,5.10
2018-06-15T12:56:55.182Z,5.23
2018-06-15T12:59:23.571Z,5.27
2018-06-15T13:01:52.015Z,4.73
2018-06-15T13:04:20.387Z,6.03
2018-06-15T13:06:48.787Z,6.20
2018-06-15T13:09:17.114Z,5.07
2018-06-15T13:11:45.483Z,5.67
2018-06-15T13:14:13.915Z,5.00
2018-06-15T13:16:42.304Z,5.97
2018-06-15T13:19:10.624Z,5.20
2018-06-15T13:21:38.963Z,5.80
2018-06-15T13:24:07.443Z,5.80
2018-06-15T13:26:35.791Z,6.10
2018-06-15T13:29:04.151Z,6.73
2018-06-15T13:31:32.554Z,5.00
2018-06-15T13:34:00.907Z,6.43
2018-06-15T13:36:29.259Z,6.10
2018-06-15T13:38:57.582Z,5.10
2018-06-15T13:41:25.931Z,5.90
2018-06-15T13:43:54.551Z,4.93
2018-06-15T13:46:22.956Z,5.00
2018-06-15T13:48:51.303Z,4.90
2018-06-15T13:51:19.804Z,5.93
2018-06-15T13:53:48.135Z,4.83
2018-06-15T13:56:16.482Z,5.47
2018-06-15T13:58:44.839Z,4.23
2018-06-15T14:01:13.191Z,5.03
2018-06-15T14:03:41.515Z,4.73
2018-06-15T14:06:09.844Z,4.50
2018-06-15T14:08:38.196Z,5.00
2018-06-15T14:11:06.547Z,4.47
2018-06-15T14:13:34.891Z,3.80
2018-06-15T14:16:03.234Z,3.97
2018-06-15T14:18:31.581Z,3.87
2018-06-15T14:20:59.930Z,3.70
2018-06-15T14:23:28.269Z,3.23
2018-06-15T14:25:56.606Z,3.10
2018-06-15T14:28:24.955Z,3.90
2018-06-15T14:30:53.391Z,3.67
2018-06-15T14:33:21.879Z,4.70
2018-06-15T14:35:50.255Z,4.20
2018-06-15T14:38:18.597Z,3.93
2018-06-15T14:40:47.009Z,4.63
2018-06-15T14:43:15.404Z,4.23
2018-06-15T14:45:43.727Z,3.47
2018-06-15T14:48:12.111Z,3.27
2018-06-15T14:50:40.447Z,4.37
2018-06-15T14:53:08.804Z,3.50
2018-06-15T14:55:37.193Z,3.80
2018-06-15T14:58:05.559Z,3.30
2018-06-15T15:00:33.879Z,3.40
2018-06-15T15:03:02.220Z,3.60
2018-06-15T15:05:30.571Z,4.03
2018-06-15T15:07:58.913Z,3.70
2018-06-15T15:10:27.239Z,4.00
2018-06-15T15:12:55.571Z,3.70
2018-06-15T15:15:23.910Z,3.57
2018-06-15T15:17:52.331Z,3.87
2018-06-15T15:20:20.658Z,4.90
2018-06-15T15:22:48.990Z,3.10
2018-06-15T15:25:17.300Z,3.40
2018-06-15T15:27:45.626Z,3.57
2018-06-15T15:30:13.935Z,4.23
2018-06-15T15:32:42.275Z,3.47
2018-06-15T15:35:10.615Z,4.23
2018-06-15T15:37:38.959Z,3.87
2018-06-15T15:40:07.275Z,4.80
2018-06-15T15:42:35.598Z,3.10
2018-06-15T15:45:04.018Z,3.93
2018-06-15T15:47:32.299Z,4.90
2018-06-15T15:50:00.647Z,3.80
2018-06-15T15:52:28.979Z,3.77
2018-06-15T15:54:57.368Z,4.40
2018-06-15T15:57:25.705Z,2.87
2018-06-15T15:59:54.031Z,3.43
2018-06-15T16:02:22.379Z,3.40
2018-06-15T16:04:50.699Z,3.20
2018-06-15T16:07:19.255Z,2.77
2018-06-15T16:09:47.563Z,3.30
2018-06-15T16:12:15.879Z,2.60
2018-06-15T16:14:44.204Z,2.83
2018-06-15T16:17:12.695Z,2.73
2018-06-15T16:19:41.027Z,2.90
2018-06-15T16:22:09.363Z,3.80
2018-06-15T16:24:37.705Z,2.70
2018-06-15T16:27:06.107Z,4.30
2018-06-15T16:29:34.436Z,3.40
2018-06-15T16:32:02.751Z,4.10
2018-06-15T16:34:31.083Z,3.60
2018-06-15T16:36:59.407Z,3.00
2018-06-15T16:39:27.742Z,4.10
2018-06-15T16:41:56.067Z,3.97
2018-06-15T16:44:24.486Z,5.40
2018-06-15T16:46:52.802Z,5.10
2018-06-15T16:49:21.175Z,3.30
2018-06-15T16:51:49.551Z,3.43
2018-06-15T16:54:17.906Z,4.33
2018-06-15T16:56:46.231Z,2.80
2018-06-15T16:59:14.567Z,3.40
2018-06-15T17:01:42.911Z,4.10
2018-06-15T17:04:11.253Z,2.60
2018-06-15T17:06:39.923Z,3.33
2018-06-15T17:09:09.770Z,3.03
2018-06-15T17:11:38.123Z,3.27
2018-06-15T17:14:06.747Z,3.53
2018-06-15T17:16:35.427Z,4.70
2018-06-15T17:19:03.899Z,4.30
2018-06-15T17:21:32.232Z,4.20
2018-06-15T17:24:00.610Z,3.10
2018-06-15T17:26:28.935Z,4.23
2018-06-15T17:28:57.446Z,3.87
2018-06-15T17:31:25.723Z,4.60
2018-06-15T17:33:54.063Z,6.03
2018-06-15T17:36:22.420Z,4.33
2018-06-15T17:38:50.762Z,4.80
2018-06-15T17:41:19.239Z,3.60
2018-06-15T17:43:47.578Z,4.23
2018-06-15T17:46:15.644Z,4.00
2018-06-15T17:48:43.999Z,4.07
2018-06-15T17:51:12.496Z,5.10
2018-06-15T17:53:40.834Z,4.07
2018-06-15T17:56:09.163Z,3.90
2018-06-15T17:58:37.507Z,4.27
2018-06-15T18:01:06.007Z,5.60
2018-06-15T18:03:34.351Z,3.53
2018-06-15T18:06:02.671Z,5.27
2018-06-15T18:08:30.993Z,4.43
2018-06-15T18:10:59.374Z,5.50
2018-06-15T18:13:27.730Z,3.57
2018-06-15T18:15:56.070Z,5.93
2018-06-15T18:18:24.475Z,7.50
2018-06-15T18:20:52.811Z,4.20
2018-06-15T18:23:21.156Z,3.47
2018-06-15T18:25:49.495Z,3.73
2018-06-15T18:28:17.830Z,4.73
2018-06-15T18:30:46.263Z,4.60
2018-06-15T18:33:14.586Z,3.70
2018-06-15T18:35:42.926Z,3.80
2018-06-15T18:38:11.280Z,3.27
2018-06-15T18:40:39.689Z,7.60
2018-06-15T18:43:08.025Z,4.40
2018-06-15T18:45:36.406Z,3.83
2018-06-15T18:48:04.783Z,5.47
2018-06-15T18:50:33.147Z,4.57
2018-06-15T18:53:01.483Z,3.90
2018-06-15T18:55:29.842Z,3.93
2018-06-15T18:57:58.158Z,3.97
2018-06-15T19:00:26.507Z,3.50
2018-06-15T19:02:54.831Z,4.70
2018-06-15T19:05:23.175Z,3.90
2018-06-15T19:07:51.635Z,4.17
2018-06-15T19:10:19.974Z,5.40
2018-06-15T19:12:48.318Z,5.70
2018-06-15T19:15:16.660Z,5.00
2018-06-15T19:17:44.970Z,3.33
2018-06-15T19:20:13.306Z,3.57
2018-06-15T19:22:41.626Z,3.60
2018-06-15T19:25:09.959Z,3.60
2018-06-15T19:27:38.294Z,3.40
2018-06-15T19:30:06.635Z,3.53
2018-06-15T19:32:34.960Z,3.23
2018-06-15T19:35:03.320Z,6.00
2018-06-15T19:37:31.638Z,3.33
2018-06-15T19:40:00.135Z,4.30
2018-06-15T19:42:28.463Z,4.13
2018-06-15T19:44:56.805Z,3.43
2018-06-15T19:47:25.190Z,5.40
2018-06-15T19:49:53.543Z,4.13
2018-06-15T19:52:21.853Z,4.00
2018-06-15T19:54:50.219Z,5.07
2018-06-15T19:57:18.618Z,4.53
2018-06-15T19:59:46.947Z,4.10
2018-06-15T20:02:15.278Z,4.50
2018-06-15T20:04:43.760Z,5.80
2018-06-15T20:07:12.087Z,4.57
2018-06-15T20:09:40.582Z,4.07
2018-06-15T20:12:08.931Z,4.80
2018-06-15T20:14:37.240Z,6.93
2018-06-15T20:17:05.762Z,4.23
2018-06-15T20:19:34.167Z,4.30
2018-06-15T20:22:02.511Z,3.93
2018-06-15T20:24:30.867Z,7.43
2018-06-15T20:26:59.199Z,5.03
2018-06-15T20:29:27.640Z,4.60
2018-06-15T20:31:56.024Z,5.83
2018-06-15T20:34:24.347Z,4.30
2018-06-15T20:36:52.676Z,4.67
2018-06-15T20:39:20.997Z,5.00
2018-06-15T20:41:49.424Z,6.03
2018-06-15T20:44:17.695Z,5.23
2018-06-15T20:46:46.031Z,4.77
2018-06-15T20:49:14.375Z,5.43
2018-06-15T20:51:42.710Z,6.30
2018-06-15T20:54:11.036Z,5.30
2018-06-15T20:56:39.374Z,6.87
2018-06-15T20:59:07.691Z,6.63
2018-06-15T21:01:36.024Z,4.40
2018-06-15T21:04:04.347Z,4.07
2018-06-15T21:06:32.684Z,5.60
2018-06-15T21:09:01.018Z,4.23
2018-06-15T21:11:29.382Z,4.37
2018-06-15T21:13:57.700Z,4.50
2018-06-15T21:16:26.035Z,5.80
2018-06-15T21:18:54.372Z,5.53
2018-06-15T21:21:22.710Z,7.17
2018-06-15T21:23:51.024Z,4.53
2018-06-15T21:26:19.374Z,9.23
2018-06-15T21:28:47.696Z,7.40
2018-06-15T21:31:16.031Z,9.33
2018-06-15T21:33:44.348Z,7.20
2018-06-15T21:36:12.688Z,4.70
2018-06-15T21:38:41.158Z,7.73
2018-06-15T21:41:09.583Z,6.77
2018-06-15T21:43:37.903Z,5.87
2018-06-15T21:46:06.385Z,6.33
2018-06-15T21:48:34.930Z,10.50
2018-06-15T21:51:03.287Z,7.17
2018-06-15T21:53:31.603Z,7.90
2018-06-15T21:55:59.943Z,12.77
2018-06-15T21:58:28.279Z,5.50
2018-06-15T22:00:56.623Z,5.97
2018-06-15T22:03:24.947Z,8.47
2018-06-15T22:05:53.295Z,7.17
2018-06-15T22:08:21.630Z,7.90
2018-06-15T22:10:49.951Z,7.83
2018-06-15T22:13:18.303Z,6.27
2018-06-15T22:15:46.630Z,6.80
2018-06-15T22:18:14.967Z,8.70
2018-06-15T22:20:43.287Z,6.20
2018-06-15T22:23:11.628Z,6.63
2018-06-15T22:25:39.955Z,8.33
2018-06-15T22:28:08.291Z,7.40
2018-06-15T22:30:36.615Z,8.50
2018-06-15T22:33:04.956Z,7.23
2018-06-15T22:35:33.379Z,6.63
2018-06-15T22:38:01.731Z,6.40
2018-06-15T22:40:30.164Z,6.43
2018-06-15T22:42:58.505Z,10.03
2018-06-15T22:45:26.830Z,9.17
2018-06-15T22:47:55.170Z,7.90
2018-06-15T22:50:23.509Z,5.50
2018-06-15T22:52:51.842Z,8.40
2018-06-15T22:55:20.175Z,7.13
2018-06-15T22:57:48.507Z,9.73
2018-06-15T23:00:17.592Z,7.47
2018-06-15T23:02:46.215Z,6.97
2018-06-15T23:05:14.533Z,7.50
2018-06-15T23:07:42.879Z,6.33
2018-06-15T23:10:11.196Z,6.70
2018-06-15T23:12:39.539Z,7.23
2018-06-15T23:15:07.859Z,10.00
2018-06-15T23:17:36.204Z,7.80
2018-06-15T23:20:04.555Z,6.77
2018-06-15T23:22:32.891Z,6.27
2018-06-15T23:25:01.211Z,8.30
2018-06-15T23:27:29.547Z,8.63
2018-06-15T23:29:57.867Z,5.50
2018-06-15T23:32:26.419Z,6.73
2018-06-15T23:34:54.735Z,6.20
2018-06-15T23:37:23.071Z,6.37
2018-06-15T23:39:51.385Z,5.87
2018-06-15T23:42:19.743Z,7.90
2018-06-15T23:44:48.079Z,5.60
2018-06-15T23:47:17.303Z,12.70
2018-06-15T23:49:45.639Z,6.20
2018-06-15T23:52:13.975Z,7.50
2018-06-15T23:54:42.290Z,12.23
2018-06-15T23:57:10.630Z,10.27
2018-06-15T23:59:38.950Z,7.73
